Time;durP1;ratioP1;P1;durP2;ratioP2;P2;SDS_P1;SDS_P2;PMS_P1;PMS_P2;Temp;Humidity;BMP_temperature;BMP_pressure;BME280_temperature;BME280_humidity;BME280_pressure;Samples;Min_cycle;Max_cycle;Signal;HPM_P1;HPM_P2
2021/03/28 00:00:16;;;;;;;8.70;3.10;;;7.00;99.90;;;;;;5144874;27;20480;-70
2021/03/28 00:03:03;;;;;;;13.27;3.00;;;7.10;99.90;;;;;;5134269;27;20437;-71
2021/03/28 00:05:51;;;;;;;4.63;2.13;;;7.10;99.90;;;;;;5139965;27;20494;-70
2021/03/28 00:08:36;;;;;;;10.67;3.13;;;7.20;99.90;;;;;;5137238;27;20422;-71
2021/03/28 00:11:23;;;;;;;8.33;3.00;;;7.10;99.90;;;;;;5140648;27;20494;-70
2021/03/28 00:14:08;;;;;;;9.97;3.67;;;7.00;99.90;;;;;;5139958;27;20730;-70
2021/03/28 00:16:55;;;;;;;11.20;2.70;;;7.20;99.90;;;;;;5133380;27;20433;-72
2021/03/28 00:19:41;;;;;;;7.50;2.67;;;7.10;99.90;;;;;;5136755;27;20463;-71
2021/03/28 00:22:31;;;;;;;6.97;2.93;;;7.20;99.90;;;;;;5135905;27;20445;-71
2021/03/28 00:25:21;;;;;;;7.23;2.80;;;7.20;99.90;;;;;;5145018;27;20471;-70
2021/03/28 00:28:09;;;;;;;8.87;2.90;;;7.30;99.90;;;;;;5144664;27;20425;-71
2021/03/28 00:31:11;;;;;;;9.57;2.57;;;7.30;99.90;;;;;;5143502;27;20447;-72
2021/03/28 00:34:13;;;;;;;7.10;3.33;;;7.40;99.90;;;;;;5144214;27;20477;-72
2021/03/28 00:37:00;;;;;;;9.93;3.23;;;7.50;99.90;;;;;;5144956;27;20440;-71
2021/03/28 00:39:48;;;;;;;8.50;3.23;;;7.60;99.90;;;;;;5148648;27;20923;-70
2021/03/28 00:42:36;;;;;;;6.00;2.80;;;7.70;99.90;;;;;;5144531;27;20445;-71
2021/03/28 00:45:26;;;;;;;8.57;3.10;;;7.80;99.90;;;;;;5149929;27;20489;-71
2021/03/28 00:48:17;;;;;;;6.07;2.67;;;7.80;99.90;;;;;;5143782;27;20476;-71
2021/03/28 00:51:16;;;;;;;7.90;3.10;;;7.80;99.90;;;;;;5148777;27;20503;-71
2021/03/28 00:54:12;;;;;;;6.67;3.10;;;7.80;99.90;;;;;;5143815;27;20445;-71
2021/03/28 00:56:58;;;;;;;5.10;2.50;;;7.70;99.90;;;;;;5142744;27;20810;-71
2021/03/28 01:00:01;;;;;;;9.50;2.67;;;7.80;99.90;;;;;;5148629;27;20440;-70
2021/03/28 01:03:03;;;;;;;5.83;2.40;;;7.80;99.90;;;;;;5149037;27;20496;-70
2021/03/28 01:05:50;;;;;;;6.10;2.80;;;7.80;99.90;;;;;;5143772;27;20436;-70
2021/03/28 01:08:43;;;;;;;8.10;2.90;;;7.80;99.90;;;;;;5143845;27;20530;-71
2021/03/28 01:11:54;;;;;;;8.33;3.23;;;7.80;99.90;;;;;;5140817;27;20445;-71
2021/03/28 01:14:47;;;;;;;8.63;3.10;;;7.80;99.90;;;;;;5144402;27;20835;-71
2021/03/28 01:17:44;;;;;;;6.73;3.10;;;7.80;99.90;;;;;;5146199;27;20573;-70
2021/03/28 01:20:52;;;;;;;5.50;2.57;;;7.70;99.90;;;;;;5147868;27;20557;-71
2021/03/28 01:23:42;;;;;;;8.10;3.77;;;7.70;99.90;;;;;;5145100;27;20554;-71
2021/03/28 01:27:06;;;;;;;8.90;3.90;;;7.50;99.90;;;;;;5144817;27;20459;-72
2021/03/28 01:29:55;;;;;;;7.00;3.23;;;7.40;99.90;;;;;;5137741;27;20513;-70
2021/03/28 01:32:45;;;;;;;9.57;3.70;;;7.50;99.90;;;;;;5145947;27;20461;-70
2021/03/28 01:35:36;;;;;;;7.33;3.47;;;7.50;99.90;;;;;;5146758;27;20451;-71
2021/03/28 01:38:26;;;;;;;7.03;3.37;;;7.50;99.90;;;;;;5144556;27;20452;-71
2021/03/28 01:41:15;;;;;;;7.00;3.30;;;7.60;99.90;;;;;;5145203;27;20991;-70
2021/03/28 01:44:09;;;;;;;7.73;3.27;;;7.70;99.90;;;;;;5144298;27;20451;-70
2021/03/28 01:47:28;;;;;;;8.90;3.60;;;7.70;99.90;;;;;;5134688;27;21028;-72
2021/03/28 01:50:42;;;;;;;6.77;3.80;;;7.80;99.90;;;;;;5141554;27;20463;-71
2021/03/28 01:53:46;;;;;;;11.33;3.83;;;7.80;99.90;;;;;;5137174;27;20522;-71
2021/03/28 01:56:36;;;;;;;9.33;3.30;;;7.80;99.90;;;;;;5148715;27;20413;-71
2021/03/28 01:59:32;;;;;;;6.40;3.97;;;7.80;99.90;;;;;;5142835;27;20420;-71
2021/03/28 02:02:35;;;;;;;9.83;3.93;;;7.80;99.90;;;;;;5144151;27;20462;-72
2021/03/28 02:05:30;;;;;;;23.77;4.87;;;7.90;99.90;;;;;;5145532;27;20459;-71
2021/03/28 02:08:22;;;;;;;7.53;4.00;;;7.70;99.90;;;;;;5140186;27;20545;-72
2021/03/28 02:11:29;;;;;;;15.97;4.60;;;7.60;99.90;;;;;;5142853;27;20995;-72
2021/03/28 02:14:43;;;;;;;11.00;4.17;;;7.70;99.90;;;;;;5138032;27;20443;-70
2021/03/28 02:17:41;;;;;;;5.40;4.30;;;7.60;99.90;;;;;;5145081;27;20451;-72
2021/03/28 02:20:46;;;;;;;11.80;5.23;;;7.70;99.90;;;;;;5143638;27;20434;-71
2021/03/28 02:23:44;;;;;;;7.50;3.87;;;7.80;99.90;;;;;;5147854;27;20425;-71
2021/03/28 02:26:37;;;;;;;8.70;3.73;;;7.80;99.90;;;;;;5135355;27;20472;-72
2021/03/28 02:29:27;;;;;;;6.07;4.23;;;7.90;99.90;;;;;;5146256;27;20491;-70
2021/03/28 02:32:29;;;;;;;10.53;4.83;;;8.00;99.90;;;;;;5142645;27;20491;-71
2021/03/28 02:35:49;;;;;;;15.40;5.20;;;7.90;99.90;;;;;;5141704;27;20413;-71
2021/03/28 02:39:06;;;;;;;13.47;5.63;;;7.90;99.90;;;;;;5108100;27;20547;-71
2021/03/28 02:42:16;;;;;;;10.70;6.30;;;7.90;99.90;;;;;;5145006;27;20470;-71
2021/03/28 02:45:08;;;;;;;13.03;7.03;;;7.90;99.90;;;;;;5149960;27;20434;-72
2021/03/28 02:48:25;;;;;;;12.80;7.13;;;7.90;99.90;;;;;;5144142;27;20456;-71
2021/03/28 02:51:23;;;;;;;17.40;7.80;;;7.80;99.90;;;;;;5135070;27;20475;-71
2021/03/28 02:54:47;;;;;;;17.73;7.90;;;7.90;99.90;;;;;;5142679;27;20495;-71
2021/03/28 02:57:40;;;;;;;21.23;9.23;;;7.80;99.90;;;;;;5144381;27;20451;-70
2021/03/28 03:00:35;;;;;;;20.83;8.43;;;7.80;99.90;;;;;;5141715;27;20531;-71
2021/03/28 03:03:42;;;;;;;11.20;7.23;;;7.90;99.90;;;;;;5134222;27;20455;-71
2021/03/28 03:06:51;;;;;;;15.47;7.43;;;7.90;99.90;;;;;;5146929;27;20504;-71
2021/03/28 03:09:58;;;;;;;12.10;6.43;;;7.90;99.90;;;;;;5140921;27;20443;-71
2021/03/28 03:12:51;;;;;;;12.77;5.70;;;7.90;99.90;;;;;;5141910;27;20458;-71
2021/03/28 03:15:41;;;;;;;12.27;6.10;;;7.90;99.90;;;;;;5139793;27;20842;-71
2021/03/28 03:19:16;;;;;;;13.00;6.00;;;7.90;99.90;;;;;;5147294;27;20455;-72
2021/03/28 03:22:44;;;;;;;10.77;4.93;;;8.00;99.90;;;;;;5142599;27;20501;-70
2021/03/28 03:26:16;;;;;;;11.07;6.27;;;8.00;99.90;;;;;;5133959;27;20998;-70
2021/03/28 03:29:25;;;;;;;14.63;7.47;;;7.90;99.90;;;;;;5059042;28;20442;-71
2021/03/28 03:32:58;;;;;;;16.30;7.57;;;7.90;99.90;;;;;;5144979;27;20479;-70
2021/03/28 03:35:53;;;;;;;20.03;8.40;;;7.80;99.90;;;;;;5062713;28;20418;-70
2021/03/28 03:39:12;;;;;;;12.87;7.20;;;7.70;99.90;;;;;;5061296;28;20459;-71
2021/03/28 03:42:24;;;;;;;15.90;8.40;;;7.70;99.90;;;;;;5140978;27;20446;-71
2021/03/28 03:45:49;;;;;;;16.27;8.83;;;7.70;99.90;;;;;;5138578;27;20467;-72
2021/03/28 03:49:02;;;;;;;16.63;8.17;;;7.70;99.90;;;;;;5136571;27;20410;-71
2021/03/28 03:52:07;;;;;;;18.73;9.30;;;7.70;99.90;;;;;;5139980;27;20455;-71
2021/03/28 03:54:58;;;;;;;13.13;7.23;;;7.60;99.90;;;;;;5137666;27;20478;-71
2021/03/28 03:57:47;;;;;;;18.43;7.53;;;7.50;99.90;;;;;;5137571;27;21038;-71
2021/03/28 04:00:39;;;;;;;13.43;8.30;;;7.40;99.90;;;;;;5138411;27;20459;-72
2021/03/28 04:03:31;;;;;;;17.43;8.90;;;7.50;99.90;;;;;;5140743;27;21052;-71
2021/03/28 04:06:47;;;;;;;15.30;7.97;;;7.40;99.90;;;;;;5134736;27;20552;-71
2021/03/28 04:09:40;;;;;;;20.20;8.53;;;7.30;99.90;;;;;;5129313;27;20450;-71
2021/03/28 04:12:39;;;;;;;14.70;7.80;;;7.30;99.90;;;;;;5148322;27;20781;-70
2021/03/28 04:15:39;;;;;;;12.07;6.27;;;7.40;99.90;;;;;;5134493;27;20467;-72
2021/03/28 04:18:36;;;;;;;17.43;7.90;;;7.40;99.90;;;;;;5140642;27;20426;-71
2021/03/28 04:21:38;;;;;;;14.30;7.13;;;7.50;99.90;;;;;;5137822;27;20463;-71
2021/03/28 04:24:34;;;;;;;15.90;7.77;;;7.60;99.90;;;;;;5140083;27;20453;-71
2021/03/28 04:27:38;;;;;;;20.93;8.47;;;7.60;99.90;;;;;;5135366;27;20413;-71
2021/03/28 04:30:39;;;;;;;11.80;6.77;;;7.40;99.90;;;;;;5136701;27;20473;-71
2021/03/28 04:33:37;;;;;;;12.10;5.47;;;7.40;99.90;;;;;;5142937;27;20632;-71
2021/03/28 04:36:34;;;;;;;12.23;6.90;;;7.30;99.90;;;;;;5138728;27;20451;-70
2021/03/28 04:39:55;;;;;;;15.60;6.20;;;7.40;99.90;;;;;;5141527;27;20466;-71
2021/03/28 04:43:11;;;;;;;11.10;5.00;;;7.50;99.90;;;;;;5142471;27;20536;-70
2021/03/28 04:46:27;;;;;;;10.97;5.63;;;7.60;99.90;;;;;;5102993;27;20471;-70
2021/03/28 04:49:54;;;;;;;12.70;6.00;;;7.60;99.90;;;;;;5147195;27;20461;-70
2021/03/28 04:53:08;;;;;;;14.07;5.50;;;7.60;99.90;;;;;;5142716;27;21384;-71
2021/03/28 04:56:30;;;;;;;12.67;5.77;;;7.40;99.90;;;;;;5137991;27;20606;-71
2021/03/28 04:59:43;;;;;;;15.30;6.00;;;7.40;99.90;;;;;;5142569;27;20969;-71
2021/03/28 05:02:48;;;;;;;12.20;4.63;;;7.30;99.90;;;;;;5136812;27;21084;-70
2021/03/28 05:05:48;;;;;;;11.37;5.80;;;7.40;99.90;;;;;;5142034;27;20906;-70
2021/03/28 05:09:05;;;;;;;14.50;6.50;;;7.20;99.90;;;;;;5138927;27;20453;-71
2021/03/28 05:12:20;;;;;;;12.43;5.47;;;7.20;99.90;;;;;;5147770;27;20441;-70
2021/03/28 05:15:39;;;;;;;13.67;5.00;;;7.20;99.90;;;;;;5110104;27;20426;-70
2021/03/28 05:18:56;;;;;;;9.17;6.23;;;7.20;99.90;;;;;;5118983;27;20429;-71
2021/03/28 05:22:28;;;;;;;11.03;6.00;;;7.30;99.90;;;;;;5132762;27;20807;-70
2021/03/28 05:25:46;;;;;;;10.63;6.80;;;7.20;99.90;;;;;;5139065;27;21071;-71
2021/03/28 05:29:08;;;;;;;11.40;5.80;;;7.20;99.90;;;;;;5149695;27;20967;-71
2021/03/28 05:32:44;;;;;;;10.07;5.23;;;7.20;99.90;;;;;;5143606;27;20476;-71
2021/03/28 05:36:06;;;;;;;14.37;5.30;;;7.20;99.90;;;;;;5134097;27;20460;-71
2021/03/28 05:39:29;;;;;;;12.40;5.27;;;7.10;99.90;;;;;;5138532;27;20496;-70
2021/03/28 05:42:30;;;;;;;12.83;5.90;;;7.10;99.90;;;;;;5146620;27;20517;-71
2021/03/28 05:45:41;;;;;;;10.00;4.97;;;7.00;99.90;;;;;;5144797;27;21143;-71
2021/03/28 05:48:58;;;;;;;8.90;4.97;;;6.90;99.90;;;;;;5150090;27;20438;-70
2021/03/28 05:52:19;;;;;;;13.77;4.93;;;6.90;99.90;;;;;;5145949;27;21059;-71
2021/03/28 05:55:38;;;;;;;10.17;5.27;;;7.00;99.90;;;;;;5144239;27;20421;-71
2021/03/28 05:58:47;;;;;;;11.00;5.07;;;7.20;99.90;;;;;;5139838;27;20459;-71
2021/03/28 06:02:01;;;;;;;8.63;4.17;;;7.20;99.90;;;;;;5141394;27;20490;-71
2021/03/28 06:05:31;;;;;;;16.43;4.80;;;7.30;99.90;;;;;;5141809;27;20418;-71
2021/03/28 06:09:03;;;;;;;7.00;4.30;;;7.50;99.90;;;;;;5140930;27;20800;-70
2021/03/28 06:12:27;;;;;;;7.67;4.77;;;7.70;99.90;;;;;;5148055;27;20463;-70
2021/03/28 06:15:43;;;;;;;7.80;4.30;;;7.80;99.90;;;;;;5139923;27;21429;-71
2021/03/28 06:18:56;;;;;;;13.83;5.30;;;7.80;99.90;;;;;;5143163;27;20489;-71
2021/03/28 06:22:19;;;;;;;11.37;5.40;;;7.80;99.90;;;;;;5149599;27;20571;-71
2021/03/28 06:25:42;;;;;;;9.23;5.20;;;7.90;99.90;;;;;;5139727;27;20481;-70
2021/03/28 06:29:12;;;;;;;22.40;8.90;;;8.00;99.90;;;;;;5146541;27;20823;-71
2021/03/28 06:32:47;;;;;;;19.83;7.90;;;8.10;99.90;;;;;;5133496;27;20477;-70
2021/03/28 06:36:08;;;;;;;14.67;6.93;;;8.30;99.90;;;;;;5146483;27;20813;-71
2021/03/28 06:39:24;;;;;;;13.43;7.40;;;8.30;99.90;;;;;;5141587;27;20862;-71
2021/03/28 06:42:43;;;;;;;8.40;5.30;;;8.40;99.90;;;;;;5140759;27;20462;-72
2021/03/28 06:45:54;;;;;;;9.63;5.53;;;8.50;99.90;;;;;;5140098;27;20658;-71
2021/03/28 06:49:40;;;;;;;11.97;5.17;;;8.60;99.90;;;;;;5141946;27;20504;-71
2021/03/28 06:52:58;;;;;;;7.97;4.57;;;8.70;99.90;;;;;;5141398;27;20466;-71
2021/03/28 06:55:45;;;;;;;12.67;5.70;;;8.80;99.90;;;;;;5139056;27;20789;-72
2021/03/28 06:58:57;;;;;;;10.33;4.13;;;8.90;99.90;;;;;;5148476;27;20535;-71
2021/03/28 07:02:03;;;;;;;9.90;3.20;;;8.90;99.90;;;;;;5140105;27;20472;-71
2021/03/28 07:05:14;;;;;;;9.13;2.80;;;8.90;99.90;;;;;;5146283;27;20538;-72
2021/03/28 07:08:24;;;;;;;7.40;3.20;;;9.00;99.90;;;;;;5145583;27;20498;-70
2021/03/28 07:11:42;;;;;;;9.93;2.63;;;9.00;99.90;;;;;;5142715;27;20487;-70
2021/03/28 07:15:15;;;;;;;12.00;3.70;;;8.90;99.90;;;;;;5134243;27;20434;-71
2021/03/28 07:18:37;;;;;;;11.60;3.10;;;9.00;99.90;;;;;;5142293;27;20433;-70
2021/03/28 07:21:54;;;;;;;8.67;3.20;;;9.00;99.90;;;;;;5078092;27;20490;-71
2021/03/28 07:25:16;;;;;;;19.97;3.33;;;9.10;99.90;;;;;;5143280;27;20513;-71
2021/03/28 07:28:31;;;;;;;8.60;3.23;;;9.20;99.90;;;;;;5142315;27;20439;-71
2021/03/28 07:31:45;;;;;;;12.83;3.13;;;9.00;99.90;;;;;;5142881;27;20436;-71
2021/03/28 07:35:02;;;;;;;15.77;4.13;;;9.10;99.90;;;;;;5114291;27;20956;-70
2021/03/28 07:38:29;;;;;;;11.30;3.60;;;9.30;99.90;;;;;;5142110;27;20437;-71
2021/03/28 07:41:47;;;;;;;11.00;3.57;;;9.40;99.90;;;;;;5139318;27;20458;-71
2021/03/28 07:45:25;;;;;;;7.10;3.10;;;9.40;99.90;;;;;;5140540;27;20430;-71
2021/03/28 07:48:56;;;;;;;15.13;3.53;;;9.60;99.90;;;;;;5140987;27;20419;-70
2021/03/28 07:52:17;;;;;;;8.60;3.20;;;9.70;99.30;;;;;;5142352;27;20495;-71
2021/03/28 07:55:22;;;;;;;15.57;4.60;;;9.80;99.80;;;;;;5140317;27;20473;-72
2021/03/28 07:58:38;;;;;;;9.23;3.47;;;9.70;97.90;;;;;;5139218;27;20497;-71
2021/03/28 08:01:59;;;;;;;7.80;3.07;;;9.80;99.50;;;;;;5102069;27;20656;-71
2021/03/28 08:05:14;;;;;;;11.43;3.20;;;9.90;97.20;;;;;;5143036;27;20470;-71
2021/03/28 08:08:15;;;;;;;10.07;3.10;;;9.90;96.80;;;;;;5140925;27;20452;-72
2021/03/28 08:11:15;;;;;;;5.70;2.90;;;10.10;97.60;;;;;;5140772;27;20548;-71
2021/03/28 08:14:33;;;;;;;9.70;3.47;;;10.30;97.90;;;;;;5140492;27;20450;-71
2021/03/28 08:17:42;;;;;;;11.57;3.73;;;10.50;96.80;;;;;;5142021;27;20468;-72
2021/03/28 08:20:55;;;;;;;9.47;3.30;;;10.70;92.10;;;;;;5137140;27;20520;-72
2021/03/28 08:24:16;;;;;;;9.17;3.50;;;10.80;91.60;;;;;;5141645;27;20513;-72
2021/03/28 08:27:35;;;;;;;9.83;3.17;;;11.00;90.40;;;;;;5109626;27;20470;-72
2021/03/28 08:30:48;;;;;;;10.67;5.10;;;11.10;90.20;;;;;;5141006;27;20450;-72
2021/03/28 08:34:09;;;;;;;7.17;2.60;;;11.20;86.90;;;;;;5144609;27;20442;-73
2021/03/28 08:37:36;;;;;;;9.60;3.00;;;11.20;87.20;;;;;;5121889;27;20443;-73
2021/03/28 08:40:55;;;;;;;7.60;2.90;;;11.40;88.20;;;;;;5139461;27;20436;-72
2021/03/28 08:44:20;;;;;;;14.53;3.30;;;11.40;85.80;;;;;;5135238;27;20504;-73
2021/03/28 08:47:43;;;;;;;10.00;3.33;;;11.40;82.70;;;;;;5147737;27;20441;-73
2021/03/28 08:50:40;;;;;;;7.30;2.57;;;11.50;82.70;;;;;;5143428;27;20951;-73
2021/03/28 08:53:51;;;;;;;7.90;3.00;;;11.60;83.00;;;;;;5140926;27;21143;-72
2021/03/28 08:57:05;;;;;;;7.77;2.93;;;11.70;82.60;;;;;;5149661;27;20417;-72
2021/03/28 09:00:16;;;;;;;11.10;3.30;;;11.80;80.10;;;;;;5141191;27;20794;-71
2021/03/28 09:03:46;;;;;;;10.97;3.20;;;11.70;78.90;;;;;;5136939;27;21004;-71
2021/03/28 09:07:05;;;;;;;11.67;2.87;;;11.70;76.00;;;;;;5044790;28;20848;-71
2021/03/28 09:10:05;;;;;;;13.63;3.33;;;11.80;78.20;;;;;;5142339;27;20559;-71
2021/03/28 09:12:56;;;;;;;7.13;2.57;;;12.10;80.40;;;;;;5145087;27;20897;-71
2021/03/28 09:15:55;;;;;;;7.63;3.00;;;12.20;78.40;;;;;;5146629;27;20446;-72
2021/03/28 09:18:57;;;;;;;9.87;3.37;;;12.40;76.50;;;;;;5147870;27;20934;-71
2021/03/28 09:21:54;;;;;;;8.53;3.03;;;12.40;70.40;;;;;;5147986;27;20791;-73
2021/03/28 09:24:47;;;;;;;10.43;3.57;;;12.50;68.50;;;;;;5144938;27;20454;-71
2021/03/28 09:27:39;;;;;;;13.70;3.40;;;12.60;68.60;;;;;;5139611;27;20506;-73
2021/03/28 09:30:37;;;;;;;9.30;2.53;;;12.70;70.80;;;;;;5146521;27;20421;-73
2021/03/28 09:33:38;;;;;;;7.27;3.73;;;13.00;74.50;;;;;;5145772;27;20467;-74
2021/03/28 09:36:39;;;;;;;12.50;4.60;;;13.00;67.70;;;;;;5150242;27;20431;-73
2021/03/28 09:39:47;;;;;;;8.17;3.13;;;12.70;60.50;;;;;;5148412;27;20481;-72
2021/03/28 09:43:08;;;;;;;17.83;2.83;;;12.80;62.30;;;;;;5150695;27;20497;-74
2021/03/28 09:46:29;;;;;;;4.33;2.20;;;12.90;59.90;;;;;;5149093;27;20467;-73
2021/03/28 09:49:30;;;;;;;8.60;3.47;;;13.10;61.90;;;;;;5143030;27;20543;-73
2021/03/28 09:52:36;;;;;;;5.60;2.70;;;13.10;54.50;;;;;;5144424;27;20814;-73
2021/03/28 09:55:38;;;;;;;6.80;2.60;;;13.30;55.20;;;;;;5137535;27;20851;-73
2021/03/28 09:58:50;;;;;;;8.60;2.90;;;13.20;60.80;;;;;;5151132;27;20940;-73
2021/03/28 10:01:53;;;;;;;5.37;2.30;;;13.40;56.00;;;;;;5147731;27;20497;-73
2021/03/28 10:05:11;;;;;;;13.03;2.80;;;13.50;59.60;;;;;;5135295;27;20496;-73
2021/03/28 10:08:01;;;;;;;9.17;3.40;;;13.70;57.10;;;;;;5143347;27;20955;-73
2021/03/28 10:11:25;;;;;;;7.80;2.37;;;13.80;56.30;;;;;;5139138;27;20462;-72
2021/03/28 10:14:29;;;;;;;8.10;2.83;;;14.00;55.70;;;;;;5131751;27;20429;-73
2021/03/28 10:17:39;;;;;;;7.20;2.60;;;14.10;54.40;;;;;;5136691;27;20476;-73
2021/03/28 10:20:44;;;;;;;7.83;2.77;;;14.30;53.80;;;;;;5141809;27;20443;-73
2021/03/28 10:23:42;;;;;;;5.60;2.60;;;14.40;52.00;;;;;;5141904;27;20585;-73
2021/03/28 10:26:48;;;;;;;8.70;2.50;;;14.50;54.10;;;;;;5138969;27;20467;-75
2021/03/28 10:30:01;;;;;;;9.57;2.93;;;14.20;49.60;;;;;;5145203;27;20540;-73
2021/03/28 10:33:01;;;;;;;4.73;2.47;;;14.30;50.00;;;;;;5143297;27;20442;-72
2021/03/28 10:35:59;;;;;;;6.20;1.90;;;14.50;47.40;;;;;;5146151;27;20422;-73
2021/03/28 10:39:10;;;;;;;7.50;1.87;;;14.60;48.10;;;;;;5142404;27;20529;-73
2021/03/28 10:42:23;;;;;;;5.83;2.97;;;14.60;47.60;;;;;;5143197;27;20451;-72
2021/03/28 10:45:40;;;;;;;5.87;2.50;;;14.60;47.50;;;;;;5152620;27;20447;-73
2021/03/28 10:49:03;;;;;;;5.33;1.90;;;14.60;46.40;;;;;;5139169;27;20757;-72
2021/03/28 10:52:30;;;;;;;6.50;2.37;;;14.50;45.50;;;;;;5139489;27;20947;-73
2021/03/28 10:55:30;;;;;;;3.90;1.80;;;14.50;44.20;;;;;;5105928;27;20411;-72
2021/03/28 10:59:02;;;;;;;6.50;1.87;;;14.50;45.20;;;;;;5133571;27;20453;-72
2021/03/28 11:02:46;;;;;;;4.23;2.03;;;14.80;44.50;;;;;;5132895;27;20479;-72
2021/03/28 11:06:06;;;;;;;4.50;1.63;;;14.90;41.10;;;;;;5133008;27;20456;-72
2021/03/28 11:09:11;;;;;;;7.97;2.20;;;14.90;43.40;;;;;;5116366;27;20423;-72
2021/03/28 11:12:15;;;;;;;8.80;2.80;;;14.90;41.50;;;;;;5137322;27;20488;-72
2021/03/28 11:15:28;;;;;;;8.73;2.43;;;14.90;43.30;;;;;;5146380;27;20417;-71
2021/03/28 11:18:36;;;;;;;5.30;1.73;;;14.90;43.40;;;;;;5145316;27;20404;-72
2021/03/28 11:21:30;;;;;;;14.47;2.73;;;14.80;41.50;;;;;;5132697;27;20405;-72
2021/03/28 11:24:38;;;;;;;6.33;2.20;;;14.80;42.50;;;;;;5132312;27;20387;-72
2021/03/28 11:27:56;;;;;;;5.03;1.90;;;15.00;42.00;;;;;;5134965;27;20449;-72
2021/03/28 11:30:43;;;;;;;10.00;2.50;;;15.30;43.20;;;;;;5146176;27;20421;-71
2021/03/28 11:33:32;;;;;;;7.70;2.20;;;15.40;41.60;;;;;;5141845;27;20543;-72
2021/03/28 11:36:25;;;;;;;5.50;2.00;;;15.60;44.40;;;;;;5141731;27;21009;-72
2021/03/28 11:39:14;;;;;;;6.70;2.80;;;15.60;42.60;;;;;;5141195;27;20839;-73
2021/03/28 11:42:23;;;;;;;4.93;2.23;;;15.70;43.20;;;;;;5142867;27;20522;-73
2021/03/28 11:45:38;;;;;;;6.50;2.40;;;15.50;41.70;;;;;;5145350;27;20811;-72
2021/03/28 11:48:27;;;;;;;6.33;2.00;;;15.60;42.20;;;;;;5141634;27;20422;-73
2021/03/28 11:51:25;;;;;;;8.00;2.17;;;15.70;40.50;;;;;;5144566;27;20486;-73
2021/03/28 11:54:18;;;;;;;6.20;2.27;;;15.80;41.50;;;;;;5142544;27;20461;-72
2021/03/28 11:57:27;;;;;;;13.20;2.37;;;16.00;43.30;;;;;;5141443;27;20496;-73
2021/03/28 12:00:35;;;;;;;6.63;2.53;;;16.20;42.70;;;;;;5136566;27;20427;-73
2021/03/28 12:03:34;;;;;;;4.57;2.00;;;16.10;40.30;;;;;;5145672;27;20527;-72
2021/03/28 12:06:46;;;;;;;5.87;2.13;;;15.90;39.90;;;;;;5144046;27;20486;-72
2021/03/28 12:09:33;;;;;;;5.13;1.80;;;16.00;40.10;;;;;;5140547;27;20479;-73
2021/03/28 12:12:27;;;;;;;12.00;2.90;;;15.90;41.40;;;;;;5139347;27;20441;-73
2021/03/28 12:15:50;;;;;;;10.43;2.97;;;16.00;40.20;;;;;;5134622;27;20638;-72
2021/03/28 12:18:45;;;;;;;7.73;2.07;;;16.00;40.70;;;;;;5135428;27;20899;-72
2021/03/28 12:21:52;;;;;;;4.50;1.90;;;16.10;39.90;;;;;;5136373;27;20516;-73
2021/03/28 12:24:38;;;;;;;5.07;1.63;;;16.00;40.40;;;;;;5149050;27;20492;-72
2021/03/28 12:27:28;;;;;;;4.63;2.10;;;16.20;39.70;;;;;;5143235;27;20462;-73
2021/03/28 12:30:37;;;;;;;4.37;1.60;;;16.40;39.80;;;;;;5143729;27;20545;-73
2021/03/28 12:33:24;;;;;;;9.07;2.20;;;16.50;38.90;;;;;;5140990;27;20914;-73
2021/03/28 12:36:12;;;;;;;7.53;2.10;;;16.80;39.70;;;;;;5139064;27;20440;-73
2021/03/28 12:39:12;;;;;;;6.57;2.20;;;16.80;39.40;;;;;;5136981;27;20579;-73
2021/03/28 12:42:17;;;;;;;9.80;2.20;;;17.10;39.50;;;;;;5144091;27;21061;-73
2021/03/28 12:45:31;;;;;;;6.63;1.87;;;17.30;38.20;;;;;;5148069;27;20496;-73
2021/03/28 12:48:33;;;;;;;9.23;2.67;;;17.20;36.60;;;;;;5150298;27;20806;-73
2021/03/28 12:51:23;;;;;;;7.37;2.20;;;17.20;36.60;;;;;;5142672;27;20465;-73
2021/03/28 12:54:15;;;;;;;5.43;2.10;;;17.20;37.70;;;;;;5141868;27;20884;-73
2021/03/28 12:57:03;;;;;;;6.13;1.60;;;17.60;39.60;;;;;;5136622;27;20446;-73
2021/03/28 12:59:48;;;;;;;6.50;2.03;;;17.80;36.60;;;;;;5146040;27;20426;-73
2021/03/28 13:02:35;;;;;;;9.40;2.20;;;17.90;35.90;;;;;;5142577;27;20458;-71
2021/03/28 13:05:26;;;;;;;10.37;2.50;;;17.80;36.10;;;;;;5148299;27;20448;-70
2021/03/28 13:08:18;;;;;;;6.03;1.93;;;17.90;36.90;;;;;;5140391;27;20810;-71
2021/03/28 13:11:05;;;;;;;9.20;2.20;;;17.80;36.60;;;;;;5137519;27;20442;-70
2021/03/28 13:13:51;;;;;;;7.23;2.13;;;17.80;36.20;;;;;;5140787;27;20532;-72
2021/03/28 13:16:53;;;;;;;6.20;2.07;;;17.90;36.30;;;;;;5143281;27;20591;-71
2021/03/28 13:19:40;;;;;;;4.63;2.00;;;17.90;36.20;;;;;;5139266;27;20797;-72
2021/03/28 13:22:35;;;;;;;5.27;2.07;;;18.20;36.60;;;;;;5142173;27;20528;-72
2021/03/28 13:25:31;;;;;;;7.10;2.00;;;18.50;34.80;;;;;;5145484;27;20980;-73
2021/03/28 13:28:26;;;;;;;7.10;2.10;;;18.70;35.70;;;;;;5146243;27;20481;-72
2021/03/28 13:31:45;;;;;;;8.73;2.10;;;18.70;34.90;;;;;;5151716;27;20512;-72
2021/03/28 13:34:34;;;;;;;7.00;1.90;;;18.40;33.40;;;;;;5059314;28;20514;-72
2021/03/28 13:37:40;;;;;;;4.70;1.93;;;18.70;34.80;;;;;;5139607;27;20960;-72
2021/03/28 13:40:30;;;;;;;6.37;2.33;;;19.00;35.00;;;;;;5145801;27;20450;-72
2021/03/28 13:43:20;;;;;;;13.80;2.80;;;18.70;33.20;;;;;;5136953;27;20579;-72
2021/03/28 13:46:11;;;;;;;4.80;1.50;;;18.70;34.60;;;;;;5143486;27;20468;-72
2021/03/28 13:49:04;;;;;;;6.67;2.20;;;18.80;34.90;;;;;;5141397;27;20444;-72
2021/03/28 13:52:12;;;;;;;6.10;2.33;;;18.60;34.90;;;;;;5144857;27;21058;-72
2021/03/28 13:55:08;;;;;;;7.67;1.77;;;18.60;35.10;;;;;;5138073;27;20552;-72
2021/03/28 13:57:53;;;;;;;3.87;1.70;;;18.70;34.10;;;;;;5137231;27;20832;-72
2021/03/28 14:00:40;;;;;;;5.67;1.90;;;19.00;34.70;;;;;;5147776;27;20966;-73
2021/03/28 14:03:31;;;;;;;5.63;1.83;;;18.80;32.60;;;;;;5144731;27;20463;-72
2021/03/28 14:06:26;;;;;;;5.63;1.73;;;18.40;33.20;;;;;;5140298;27;20532;-72
2021/03/28 14:09:17;;;;;;;5.60;1.93;;;18.30;34.10;;;;;;5144466;27;20488;-72
2021/03/28 14:12:08;;;;;;;7.10;2.00;;;18.50;34.80;;;;;;5139736;27;20557;-72
2021/03/28 14:15:08;;;;;;;8.77;2.37;;;18.70;35.00;;;;;;5143413;27;20998;-72
2021/03/28 14:17:59;;;;;;;6.00;2.23;;;18.90;35.40;;;;;;5145409;27;20478;-73
2021/03/28 14:20:46;;;;;;;6.63;2.33;;;18.90;33.10;;;;;;5148938;27;20935;-72
2021/03/28 14:23:33;;;;;;;5.27;2.10;;;18.70;34.20;;;;;;5140756;27;20895;-72
2021/03/28 14:26:24;;;;;;;5.53;1.90;;;18.60;34.20;;;;;;5142737;27;20833;-72
2021/03/28 14:29:32;;;;;;;6.93;1.90;;;18.60;34.40;;;;;;5150774;27;20517;-72
2021/03/28 14:32:27;;;;;;;7.70;1.70;;;18.50;32.90;;;;;;5142920;27;20520;-72
2021/03/28 14:35:34;;;;;;;4.40;1.80;;;18.20;34.60;;;;;;5142764;27;20503;-72
2021/03/28 14:38:59;;;;;;;9.30;2.47;;;18.50;35.30;;;;;;5143884;27;20511;-72
2021/03/28 14:41:48;;;;;;;5.90;2.37;;;18.70;33.90;;;;;;5141270;27;20458;-72
2021/03/28 14:45:02;;;;;;;6.43;2.17;;;18.80;34.20;;;;;;5148135;27;20793;-73
2021/03/28 14:48:14;;;;;;;8.60;2.50;;;18.70;34.40;;;;;;5147743;27;20482;-72
2021/03/28 14:51:06;;;;;;;6.20;1.83;;;18.30;34.30;;;;;;5140582;27;20448;-72
2021/03/28 14:54:01;;;;;;;8.53;2.20;;;18.10;33.90;;;;;;5143839;27;20500;-73
2021/03/28 14:56:54;;;;;;;9.00;2.17;;;17.80;35.00;;;;;;5143507;27;20513;-73
2021/03/28 14:59:53;;;;;;;7.40;2.33;;;17.90;35.50;;;;;;5145230;27;20532;-72
2021/03/28 15:02:51;;;;;;;7.67;2.00;;;18.00;35.00;;;;;;5147129;27;20467;-73
2021/03/28 15:06:10;;;;;;;5.23;1.53;;;18.10;35.50;;;;;;5146512;27;20842;-73
2021/03/28 15:09:00;;;;;;;10.63;1.70;;;18.20;36.30;;;;;;5141265;27;20439;-72
2021/03/28 15:11:50;;;;;;;5.43;1.77;;;18.40;36.20;;;;;;5140324;27;20522;-72
2021/03/28 15:14:46;;;;;;;6.50;2.40;;;18.60;35.90;;;;;;5142948;27;20493;-72
2021/03/28 15:17:41;;;;;;;9.63;1.60;;;18.60;35.50;;;;;;5143199;27;20438;-72
2021/03/28 15:20:34;;;;;;;5.90;1.60;;;18.60;35.20;;;;;;5143145;27;20463;-73
2021/03/28 15:23:26;;;;;;;8.60;2.33;;;18.50;35.20;;;;;;5141234;27;20452;-73
2021/03/28 15:26:30;;;;;;;8.43;2.47;;;18.30;35.00;;;;;;5142916;27;20803;-72
2021/03/28 15:29:21;;;;;;;11.63;2.67;;;18.10;35.50;;;;;;5144859;27;20442;-72
2021/03/28 15:32:28;;;;;;;10.43;2.40;;;17.90;36.10;;;;;;5144601;27;20439;-72
2021/03/28 15:35:27;;;;;;;4.40;1.63;;;18.00;36.10;;;;;;5140828;27;20484;-72
2021/03/28 15:38:33;;;;;;;5.73;1.80;;;18.00;37.40;;;;;;5136061;27;20433;-72
2021/03/28 15:41:36;;;;;;;5.67;1.80;;;17.90;36.50;;;;;;5143371;27;20460;-72
2021/03/28 15:44:57;;;;;;;4.80;1.90;;;17.90;36.00;;;;;;5137166;27;20497;-72
2021/03/28 15:48:11;;;;;;;7.73;1.97;;;17.60;37.00;;;;;;5108587;27;20502;-72
2021/03/28 15:51:12;;;;;;;4.33;1.90;;;17.60;37.00;;;;;;5135731;27;20446;-72
2021/03/28 15:54:27;;;;;;;6.53;2.03;;;17.50;36.90;;;;;;5141444;27;20485;-72
2021/03/28 15:57:21;;;;;;;7.00;2.00;;;17.40;36.80;;;;;;5134525;27;20493;-72
2021/03/28 16:00:26;;;;;;;8.60;2.47;;;17.40;36.50;;;;;;5147381;27;21013;-72
2021/03/28 16:03:25;;;;;;;6.90;2.10;;;17.40;36.80;;;;;;5140234;27;20822;-72